createdAt,value
2022-08-07T00:00:51.542Z,99.90
2022-08-07T00:03:18.235Z,99.90
2022-08-07T00:05:45.330Z,99.90
2022-08-07T00:08:14.506Z,99.90
2022-08-07T00:10:48.153Z,99.90
2022-08-07T00:13:25.779Z,99.90
2022-08-07T00:15:54.785Z,99.90
2022-08-07T00:18:26.501Z,99.90
2022-08-07T00:21:01.740Z,99.90
2022-08-07T00:23:35.001Z,99.90
2022-08-07T00:26:18.532Z,99.90
2022-08-07T00:28:56.576Z,99.90
2022-08-07T00:31:25.986Z,99.90
2022-08-07T00:34:05.256Z,99.90
2022-08-07T00:36:35.901Z,99.90
2022-08-07T00:39:05.503Z,99.90
2022-08-07T00:41:33.654Z,99.90
2022-08-07T00:44:11.937Z,99.90
2022-08-07T00:46:41.812Z,99.90
2022-08-07T00:49:10.429Z,99.90
2022-08-07T00:51:58.515Z,99.90
2022-08-07T00:54:25.616Z,99.90
2022-08-07T00:56:52.422Z,99.90
2022-08-07T00:59:35.825Z,99.90
2022-08-07T01:02:13.910Z,99.90
2022-08-07T01:04:54.166Z,99.90
2022-08-07T01:07:25.289Z,99.90
2022-08-07T01:10:06.578Z,99.90
2022-08-07T01:12:53.175Z,99.90
2022-08-07T01:15:22.009Z,99.90
2022-08-07T01:17:48.864Z,99.90
2022-08-07T01:20:17.275Z,99.90
2022-08-07T01:22:54.074Z,99.90
2022-08-07T01:25:53.885Z,99.90
2022-08-07T01:28:19.834Z,99.90
2022-08-07T01:30:47.248Z,99.90
2022-08-07T01:33:18.080Z,99.90
2022-08-07T01:35:53.310Z,99.90
2022-08-07T01:38:25.229Z,99.90
2022-08-07T01:41:00.908Z,99.90
2022-08-07T01:43:34.805Z,99.90
2022-08-07T01:46:05.545Z,99.90
2022-08-07T01:48:35.324Z,99.90
2022-08-07T01:52:02.051Z,99.90
2022-08-07T01:54:09.591Z,99.90
2022-08-07T01:57:03.825Z,99.90
2022-08-07T01:59:43.887Z,99.90
2022-08-07T02:03:11.251Z,99.90
2022-08-07T02:05:43.042Z,99.90
2022-08-07T02:08:09.238Z,99.90
2022-08-07T02:10:37.585Z,99.90
2022-08-07T02:13:10.731Z,99.90
2022-08-07T02:15:39.922Z,99.90
2022-08-07T02:18:12.596Z,99.90
2022-08-07T02:20:42.021Z,99.90
2022-08-07T02:23:16.549Z,99.90
2022-08-07T02:26:30.835Z,99.90
2022-08-07T02:28:41.045Z,99.90
2022-08-07T02:31:10.247Z,99.90
2022-08-07T02:34:04.083Z,99.90
2022-08-07T02:36:39.345Z,99.90
2022-08-07T02:39:16.265Z,99.90
2022-08-07T02:41:50.788Z,99.90
2022-08-07T02:44:23.723Z,99.90
2022-08-07T02:46:56.223Z,99.90
2022-08-07T02:49:29.197Z,99.90
2022-08-07T02:52:17.248Z,99.90
2022-08-07T02:54:50.564Z,99.90
2022-08-07T02:57:22.137Z,99.90
2022-08-07T02:59:54.980Z,99.90
2022-08-07T03:02:27.871Z,99.90
2022-08-07T03:04:56.340Z,99.90
2022-08-07T03:08:04.887Z,99.90
2022-08-07T03:10:14.281Z,99.90
2022-08-07T03:12:42.204Z,99.90
2022-08-07T03:15:10.757Z,99.90
2022-08-07T03:17:54.093Z,99.90
2022-08-07T03:20:22.140Z,99.90
2022-08-07T03:22:50.540Z,99.90
2022-08-07T03:25:21.113Z,99.90
2022-08-07T03:28:09.034Z,99.90
2022-08-07T03:30:37.424Z,99.90
2022-08-07T03:33:08.551Z,99.90
2022-08-07T03:35:43.807Z,99.90
2022-08-07T03:38:21.085Z,99.90
2022-08-07T03:40:57.162Z,99.90
2022-08-07T03:43:26.669Z,99.90
2022-08-07T03:45:59.604Z,99.90
2022-08-07T03:48:26.913Z,99.90
2022-08-07T03:50:57.959Z,99.90
2022-08-07T03:54:00.595Z,99.90
2022-08-07T03:56:14.249Z,99.90
2022-08-07T03:59:07.914Z,99.90
2022-08-07T04:01:32.248Z,99.90
2022-08-07T04:04:00.028Z,99.90
2022-08-07T04:06:37.500Z,99.90
2022-08-07T04:09:06.451Z,99.90
2022-08-07T04:12:27.782Z,99.90
2022-08-07T04:14:38.592Z,99.90
2022-08-07T04:17:19.832Z,99.90
2022-08-07T04:19:52.346Z,99.90
2022-08-07T04:22:29.318Z,99.90
2022-08-07T04:25:01.438Z,99.90
2022-08-07T04:27:35.727Z,99.90
2022-08-07T04:30:11.813Z,99.90
2022-08-07T04:32:48.450Z,99.90
2022-08-07T04:35:25.270Z,99.90
2022-08-07T04:38:03.447Z,99.90
2022-08-07T04:40:34.856Z,99.90
2022-08-07T04:43:03.286Z,99.90
2022-08-07T04:46:00.930Z,99.90
2022-08-07T04:49:02.167Z,99.90
2022-08-07T04:51:57.942Z,99.90
2022-08-07T04:54:34.580Z,99.90
2022-08-07T04:58:10.890Z,99.90
2022-08-07T05:00:12.441Z,99.90
2022-08-07T05:04:00.500Z,99.90
2022-08-07T05:06:19.733Z,99.90
2022-08-07T05:09:08.325Z,99.90
2022-08-07T05:11:57.006Z,99.90
2022-08-07T05:14:55.987Z,99.90
2022-08-07T05:17:52.231Z,99.90
2022-08-07T05:20:11.218Z,99.90
2022-08-07T05:22:41.444Z,99.90
2022-08-07T05:25:11.844Z,99.90
2022-08-07T05:28:16.014Z,99.90
2022-08-07T05:30:47.114Z,99.90
2022-08-07T05:33:15.595Z,99.90
2022-08-07T05:35:45.937Z,99.90
2022-08-07T05:39:00.143Z,99.90
2022-08-07T05:41:12.266Z,99.90
2022-08-07T05:44:08.060Z,99.90
2022-08-07T05:46:31.083Z,99.90
2022-08-07T05:48:59.745Z,99.90
2022-08-07T05:51:31.590Z,99.90
2022-08-07T05:54:13.621Z,99.90
2022-08-07T05:56:51.290Z,99.90
2022-08-07T05:59:19.640Z,99.90
2022-08-07T06:01:49.213Z,99.90
2022-08-07T06:04:18.964Z,99.90
2022-08-07T06:06:47.639Z,99.90
2022-08-07T06:09:23.443Z,99.90
2022-08-07T06:12:10.387Z,99.90
2022-08-07T06:14:39.518Z,99.90
2022-08-07T06:17:08.304Z,99.90
2022-08-07T06:19:52.232Z,99.90
2022-08-07T06:22:27.377Z,99.90
2022-08-07T06:24:58.402Z,99.90
2022-08-07T06:27:44.481Z,99.90
2022-08-07T06:30:32.021Z,99.90
2022-08-07T06:33:02.305Z,99.90
2022-08-07T06:35:45.893Z,99.90
2022-08-07T06:38:20.074Z,99.90
2022-08-07T06:40:51.124Z,99.90
2022-08-07T06:43:22.580Z,99.90
2022-08-07T06:45:50.863Z,99.90
2022-08-07T06:48:25.102Z,99.90
2022-08-07T06:50:54.261Z,99.90
2022-08-07T06:55:29.492Z,99.90
2022-08-07T06:56:15.490Z,99.90
2022-08-07T07:00:12.144Z,99.90
2022-08-07T07:01:33.291Z,99.90
2022-08-07T07:04:28.007Z,99.90
2022-08-07T07:07:01.254Z,99.90
2022-08-07T07:09:31.656Z,99.90
2022-08-07T07:12:18.074Z,99.90
2022-08-07T07:14:53.067Z,99.90
2022-08-07T07:17:38.757Z,99.90
2022-08-07T07:20:14.994Z,99.90
2022-08-07T07:24:11.190Z,99.90
2022-08-07T07:26:35.368Z,99.90
2022-08-07T07:28:42.176Z,99.90
2022-08-07T07:31:21.618Z,99.90
2022-08-07T07:33:57.081Z,99.90
2022-08-07T07:36:32.357Z,99.90
2022-08-07T07:39:02.342Z,99.90
2022-08-07T07:41:30.894Z,99.90
2022-08-07T07:44:16.746Z,99.90
2022-08-07T07:46:56.072Z,99.90
2022-08-07T07:50:33.945Z,99.90
2022-08-07T07:52:16.401Z,99.90
2022-08-07T07:54:51.351Z,99.90
2022-08-07T07:57:52.585Z,99.90
2022-08-07T08:00:12.191Z,99.90
2022-08-07T08:03:05.819Z,99.90
2022-08-07T08:05:50.885Z,99.90
2022-08-07T08:08:34.463Z,99.90
2022-08-07T08:11:16.064Z,99.90
2022-08-07T08:13:53.951Z,99.90
2022-08-07T08:16:29.664Z,99.90
2022-08-07T08:18:58.282Z,99.90
2022-08-07T08:21:55.400Z,99.90
2022-08-07T08:24:47.940Z,99.90
2022-08-07T08:27:33.495Z,99.90
2022-08-07T08:30:09.368Z,99.90
2022-08-07T08:32:49.897Z,99.90
2022-08-07T08:35:23.627Z,99.90
2022-08-07T08:38:04.682Z,99.90
2022-08-07T08:40:35.822Z,99.90
2022-08-07T08:43:05.470Z,99.90
2022-08-07T08:45:42.055Z,99.90
2022-08-07T08:48:50.997Z,99.90
2022-08-07T08:52:00.859Z,99.90
2022-08-07T08:54:44.874Z,99.90
2022-08-07T08:57:30.310Z,99.90
2022-08-07T09:00:11.759Z,99.90
2022-08-07T09:02:52.527Z,99.90
2022-08-07T09:05:45.559Z,99.90
2022-08-07T09:08:48.081Z,99.90
2022-08-07T09:11:51.188Z,99.90
2022-08-07T09:14:35.822Z,99.90
2022-08-07T09:17:21.843Z,99.90
2022-08-07T09:19:57.383Z,99.90
2022-08-07T09:24:31.316Z,99.90
2022-08-07T09:26:09.441Z,99.90
2022-08-07T09:30:05.753Z,99.90
2022-08-07T09:31:39.032Z,99.90
2022-08-07T09:34:22.417Z,99.90
2022-08-07T09:37:33.340Z,99.90
2022-08-07T09:40:24.158Z,99.90
2022-08-07T09:43:03.427Z,99.90
2022-08-07T09:47:24.852Z,99.90
2022-08-07T09:49:59.444Z,99.90
2022-08-07T09:52:33.671Z,99.90
2022-08-07T09:55:29.804Z,99.90
2022-08-07T09:58:18.511Z,99.90
2022-08-07T10:01:01.092Z,99.90
2022-08-07T10:04:05.570Z,99.90
2022-08-07T10:06:55.512Z,99.90
2022-08-07T10:10:00.739Z,99.90
2022-08-07T10:12:53.096Z,99.90
2022-08-07T10:15:44.426Z,99.90
2022-08-07T10:18:36.283Z,99.90
2022-08-07T10:21:51.132Z,99.90
2022-08-07T10:24:39.635Z,99.90
2022-08-07T10:27:46.793Z,99.90
2022-08-07T10:30:18.758Z,99.90
2022-08-07T10:33:03.195Z,99.90
2022-08-07T10:35:55.919Z,99.90
2022-08-07T10:38:48.000Z,99.90
2022-08-07T10:41:47.454Z,99.90
2022-08-07T10:44:39.175Z,99.90
2022-08-07T10:47:51.432Z,99.90
2022-08-07T10:50:26.687Z,99.90
2022-08-07T10:52:57.421Z,99.90
2022-08-07T10:55:38.435Z,99.90
2022-08-07T10:58:36.638Z,99.90
2022-08-07T11:01:24.969Z,99.90
2022-08-07T11:04:23.160Z,99.90
2022-08-07T11:08:00.725Z,99.90
2022-08-07T11:10:29.753Z,99.90
2022-08-07T11:13:16.852Z,99.90
2022-08-07T11:16:07.356Z,99.90
2022-08-07T11:18:41.187Z,99.90
2022-08-07T11:21:19.848Z,99.90
2022-08-07T11:23:56.769Z,99.90
2022-08-07T11:26:50.370Z,99.90
2022-08-07T11:29:41.111Z,99.90
2022-08-07T11:32:26.149Z,99.90
2022-08-07T11:35:09.398Z,99.90
2022-08-07T11:37:58.497Z,99.90
2022-08-07T11:40:58.118Z,99.90
2022-08-07T11:43:54.240Z,99.90
2022-08-07T11:46:34.274Z,99.90
2022-08-07T11:49:50.316Z,99.90
2022-08-07T11:52:37.691Z,99.90
2022-08-07T11:56:15.503Z,99.90
2022-08-07T11:58:33.543Z,99.90
2022-08-07T12:01:22.042Z,99.90
2022-08-07T12:04:17.253Z,99.90
2022-08-07T12:06:51.667Z,99.90
2022-08-07T12:09:48.697Z,99.90
2022-08-07T12:12:30.266Z,99.90
2022-08-07T12:15:03.715Z,99.90
2022-08-07T12:17:59.309Z,99.90
2022-08-07T12:20:44.860Z,99.90
2022-08-07T12:24:05.893Z,99.90
2022-08-07T12:26:46.388Z,99.90
2022-08-07T12:29:37.799Z,99.90
2022-08-07T12:32:31.018Z,99.90
2022-08-07T12:34:59.155Z,99.90
2022-08-07T12:38:09.486Z,99.90
2022-08-07T12:40:47.780Z,99.90
2022-08-07T12:43:58.766Z,99.90
2022-08-07T12:46:26.245Z,99.90
2022-08-07T12:49:25.784Z,99.90
2022-08-07T12:52:17.920Z,99.90
2022-08-07T12:55:05.387Z,99.90
2022-08-07T12:58:00.954Z,99.90
2022-08-07T13:00:50.099Z,99.90
2022-08-07T13:04:02.188Z,99.90
2022-08-07T13:07:00.551Z,99.90
2022-08-07T13:10:19.372Z,99.90
2022-08-07T13:12:54.167Z,99.90
2022-08-07T13:15:33.513Z,99.90
2022-08-07T13:18:26.106Z,99.90
2022-08-07T13:21:10.771Z,99.90
2022-08-07T13:24:07.002Z,99.90
2022-08-07T13:26:46.965Z,99.90
2022-08-07T13:30:03.623Z,99.90
2022-08-07T13:32:45.974Z,99.90
2022-08-07T13:36:00.468Z,99.90
2022-08-07T13:38:42.132Z,99.90
2022-08-07T13:41:35.077Z,99.90
2022-08-07T13:44:10.341Z,99.90
2022-08-07T13:46:49.233Z,99.90
2022-08-07T13:50:34.376Z,99.90
2022-08-07T13:52:27.128Z,99.90
2022-08-07T13:54:57.212Z,99.90
2022-08-07T13:57:32.277Z,99.90
2022-08-07T14:00:07.787Z,99.90
2022-08-07T14:02:45.762Z,99.90
2022-08-07T14:05:22.851Z,99.90
2022-08-07T14:08:00.788Z,99.90
2022-08-07T14:10:42.079Z,99.90
2022-08-07T14:13:16.556Z,99.90
2022-08-07T14:15:53.134Z,99.90
2022-08-07T14:18:30.608Z,99.90
2022-08-07T14:22:01.070Z,99.90
2022-08-07T14:24:15.309Z,99.90
2022-08-07T14:26:54.566Z,99.90
2022-08-07T14:30:05.084Z,99.90
2022-08-07T14:32:19.222Z,99.90
2022-08-07T14:34:48.033Z,99.90
2022-08-07T14:37:19.057Z,99.90
2022-08-07T14:40:15.466Z,99.90
2022-08-07T14:42:35.670Z,99.90
2022-08-07T14:45:47.102Z,99.90
2022-08-07T14:48:20.953Z,99.90
2022-08-07T14:50:53.938Z,99.90
2022-08-07T14:54:08.911Z,99.90
2022-08-07T14:56:13.176Z,99.90
2022-08-07T14:58:45.196Z,99.90
2022-08-07T15:01:22.031Z,99.90
2022-08-07T15:06:39.933Z,99.90
2022-08-07T15:15:21.275Z,99.90
2022-08-07T15:17:58.120Z,99.90
2022-08-07T15:20:54.770Z,99.90
2022-08-07T15:25:02.950Z,99.90
2022-08-07T15:26:21.275Z,99.90
2022-08-07T15:28:59.633Z,99.90
2022-08-07T15:32:00.571Z,99.90
2022-08-07T15:34:32.868Z,99.90
2022-08-07T15:37:08.151Z,99.90
2022-08-07T15:39:57.740Z,99.90
2022-08-07T15:42:47.827Z,99.90
2022-08-07T15:45:55.716Z,99.90
2022-08-07T15:48:30.731Z,99.90
2022-08-07T15:51:09.869Z,99.90
2022-08-07T15:53:52.918Z,99.90
2022-08-07T15:56:29.413Z,99.90
2022-08-07T15:59:03.761Z,99.90
2022-08-07T16:01:39.249Z,99.90
2022-08-07T16:04:15.357Z,99.90
2022-08-07T16:06:54.262Z,99.90
2022-08-07T16:09:54.024Z,99.90
2022-08-07T16:13:05.431Z,99.90
2022-08-07T16:16:06.859Z,99.90
2022-08-07T16:19:15.836Z,99.90
2022-08-07T16:22:08.898Z,99.90
2022-08-07T16:24:56.754Z,99.90
2022-08-07T16:27:39.952Z,99.90
2022-08-07T16:30:29.181Z,99.90
2022-08-07T16:34:02.320Z,99.90
2022-08-07T16:36:20.749Z,99.90
2022-08-07T16:39:33.465Z,99.90
2022-08-07T16:42:34.281Z,99.90
2022-08-07T16:48:27.757Z,99.90
2022-08-07T16:51:54.150Z,99.90
2022-08-07T16:54:54.175Z,99.90
2022-08-07T16:58:01.701Z,99.90
2022-08-07T17:00:30.179Z,99.90
2022-08-07T17:03:07.027Z,99.90
2022-08-07T17:06:29.109Z,99.90
2022-08-07T17:10:06.620Z,99.90
2022-08-07T17:12:34.292Z,99.90
2022-08-07T17:15:43.761Z,99.90
2022-08-07T17:18:23.764Z,99.90
2022-08-07T17:20:54.843Z,99.90
2022-08-07T17:23:46.998Z,99.90
2022-08-07T17:26:48.212Z,99.90
2022-08-07T17:30:14.010Z,99.90
2022-08-07T17:32:30.883Z,99.90
2022-08-07T17:35:50.480Z,99.90
2022-08-07T17:38:32.990Z,99.90
2022-08-07T17:42:01.628Z,99.90
2022-08-07T17:44:51.687Z,99.90
2022-08-07T17:47:42.653Z,99.90
2022-08-07T17:50:19.687Z,99.50
2022-08-07T17:53:55.705Z,99.40
2022-08-07T17:56:06.669Z,99.70
2022-08-07T17:58:46.133Z,99.30
2022-08-07T18:01:56.714Z,99.10
2022-08-07T18:04:31.031Z,98.80
2022-08-07T18:07:28.529Z,98.70
2022-08-07T18:10:32.212Z,98.20
2022-08-07T18:13:09.782Z,98.50
2022-08-07T18:15:55.004Z,98.40
2022-08-07T18:18:46.807Z,98.40
2022-08-07T18:22:00.498Z,98.60
2022-08-07T18:24:34.470Z,98.30
2022-08-07T18:27:22.833Z,98.40
2022-08-07T18:30:07.092Z,98.40
2022-08-07T18:33:19.164Z,98.40
2022-08-07T18:36:08.106Z,98.70
2022-08-07T18:39:00.500Z,99.10
2022-08-07T18:42:12.800Z,99.00
2022-08-07T18:45:44.736Z,98.20
2022-08-07T18:48:00.863Z,97.60
2022-08-07T18:50:45.511Z,98.00
2022-08-07T18:53:39.776Z,98.10
2022-08-07T18:56:40.713Z,98.20
2022-08-07T19:00:32.827Z,98.30
2022-08-07T19:03:02.687Z,98.20
2022-08-07T19:06:02.202Z,98.40
2022-08-07T19:08:33.815Z,98.60
2022-08-07T19:11:35.256Z,98.30
2022-08-07T19:14:20.220Z,98.00
2022-08-07T19:17:05.429Z,97.80
2022-08-07T19:19:58.543Z,97.90
2022-08-07T19:23:00.809Z,98.20
2022-08-07T19:26:23.882Z,98.30
2022-08-07T19:30:57.526Z,98.20
2022-08-07T19:32:02.354Z,99.20
2022-08-07T19:34:34.384Z,99.90
2022-08-07T19:37:09.815Z,99.90
2022-08-07T19:39:57.468Z,99.90
2022-08-07T19:42:30.843Z,99.90
2022-08-07T19:45:09.283Z,99.90
2022-08-07T19:47:38.580Z,99.90
2022-08-07T19:50:44.510Z,99.90
2022-08-07T19:52:58.666Z,99.90
2022-08-07T19:55:57.308Z,99.90
2022-08-07T19:58:18.295Z,99.90
2022-08-07T20:00:54.268Z,99.90
2022-08-07T20:03:34.937Z,99.90
2022-08-07T20:06:04.843Z,99.90
2022-08-07T20:08:39.863Z,99.90
2022-08-07T20:11:34.309Z,99.90
2022-08-07T20:14:07.268Z,99.90
2022-08-07T20:16:45.491Z,99.90
2022-08-07T20:19:13.739Z,99.90
2022-08-07T20:21:46.601Z,99.90
2022-08-07T20:24:31.411Z,99.90
2022-08-07T20:27:04.428Z,99.90
2022-08-07T20:29:56.802Z,99.90
2022-08-07T20:32:39.632Z,99.90
2022-08-07T20:35:12.342Z,99.90
2022-08-07T20:37:59.026Z,99.90
2022-08-07T20:40:33.454Z,99.90
2022-08-07T20:43:03.568Z,99.90
2022-08-07T20:46:26.123Z,99.90
2022-08-07T20:48:30.528Z,99.90
2022-08-07T20:51:02.882Z,99.90
2022-08-07T20:54:03.850Z,99.90
2022-08-07T20:56:26.206Z,99.90
2022-08-07T20:58:55.399Z,99.90
2022-08-07T21:01:23.160Z,99.90
2022-08-07T21:04:13.357Z,99.90
2022-08-07T21:06:46.668Z,99.90
2022-08-07T21:09:24.492Z,99.90
2022-08-07T21:11:57.134Z,99.90
2022-08-07T21:14:33.481Z,99.90
2022-08-07T21:18:06.189Z,99.90
2022-08-07T21:20:00.876Z,99.90
2022-08-07T21:22:39.644Z,99.90
2022-08-07T21:25:43.527Z,99.90
2022-08-07T21:28:48.406Z,99.90
2022-08-07T21:32:42.305Z,99.90
2022-08-07T21:34:45.997Z,99.90
2022-08-07T21:37:21.692Z,99.90
2022-08-07T21:39:59.448Z,99.90
2022-08-07T21:42:46.661Z,99.90
2022-08-07T21:46:10.686Z,99.90
2022-08-07T21:48:56.511Z,99.90
2022-08-07T21:51:55.863Z,99.90
2022-08-07T21:54:34.717Z,99.90
2022-08-07T21:57:31.242Z,99.90
2022-08-07T22:02:59.186Z,99.90
2022-08-07T22:05:45.508Z,99.90
2022-08-07T22:08:19.919Z,99.90
2022-08-07T22:10:54.685Z,99.90
2022-08-07T22:13:23.889Z,99.90
2022-08-07T22:16:45.744Z,99.90
2022-08-07T22:19:08.288Z,99.90
2022-08-07T22:22:04.437Z,99.90
2022-08-07T22:24:56.793Z,99.90
2022-08-07T22:28:06.400Z,99.90
2022-08-07T22:30:34.666Z,99.90
2022-08-07T22:33:15.027Z,99.90
2022-08-07T22:35:54.533Z,99.90
2022-08-07T22:38:39.045Z,99.90
2022-08-07T22:42:03.153Z,99.90
2022-08-07T22:44:29.010Z,99.90
2022-08-07T22:47:18.131Z,99.90
2022-08-07T22:50:08.048Z,99.90
2022-08-07T22:53:18.709Z,99.90
2022-08-07T22:56:08.631Z,99.90
2022-08-07T22:58:44.668Z,99.90
2022-08-07T23:01:17.256Z,99.90
2022-08-07T23:04:04.679Z,99.90
2022-08-07T23:07:30.115Z,99.90
2022-08-07T23:10:37.988Z,99.90
2022-08-07T23:14:09.130Z,99.90
2022-08-07T23:16:54.714Z,99.90
2022-08-07T23:20:09.876Z,99.90
2022-08-07T23:23:03.047Z,99.90
2022-08-07T23:25:59.519Z,99.90
2022-08-07T23:29:04.604Z,99.90
2022-08-07T23:34:19.766Z,99.90
2022-08-07T23:35:29.638Z,99.90
2022-08-07T23:38:36.893Z,99.90
2022-08-07T23:41:16.322Z,99.90
2022-08-07T23:44:12.602Z,99.90
2022-08-07T23:47:06.951Z,99.90
2022-08-07T23:49:58.293Z,99.90
2022-08-07T23:53:06.494Z,99.90
2022-08-07T23:56:05.353Z,99.90
2022-08-07T23:58:45.229Z,99.90
